EBCILDZD

Guest
Details From EBCI - Brussels South - Charleroi
To LDZD - Zadar
Flight Number -
Tags Generated
Created
Modified
Stats Distance 586 nm / 1,085 km
Max Altitude 0 ft / 0 m
Waypoints 4
Social Downloads 3
Likes 0
Share VATSIM

Download

Looking for another format? Having issues loading an existing format? Contact us
Advertisement - Login to hide

Notes

Generated

Route

EBCI NYW04 BO LDZD

ID Type Via Altitude Latitude Longitude Leg Dist Tot Dist Heading (true) Name
O EBCI APT - 0 ft / 0 m 50.45539˚ 4.43664˚ - 0 nm - -
NYW04 FIX - 0 ft / 0 m 47.69781˚ 9.74359˚ 266 nm 266 nm 126° / 130° -
BO NDB - 0 ft / 0 m 44.16925˚ 15.26400˚ 313 nm 579 nm 131° / 135° BOKANJAC NDB
O LDZD APT - 0 ft / 0 m 44.07939˚ 15.34116˚ 6 nm 585 nm 148° / 148° -

Altitude Profile

Advertisement - Login to hide

Weather


0- 5 10 15 20 25 30 35+ Temperature / ° C

Clouds and Precipitation
Forecast for 2018-05-25 12:00 UTC. Updated 4 hours ago

Ground ~20,000 ft ~40,000 ft Winds

EBCI

Details ICAO EBCI (CRL)
Name Brussels South - Charleroi
Region Belgium
Timezone Europe/Brussels (UTC+2.0)
Stats Elevation 614 ft / 187 m (AMSL)
Location 50.459947° 4.453125°
Runways 1
Magnetic Variation 1.194° E

METAR

EBCI 251450Z 34004KT 300V100 9999 FEW045 23/13 Q1018 NOSIG

Decode

TAF

TAF EBCI 251100Z 2512/2618 VRB03KT 9999 SCT035 PROB30 TEMPO 2514/2522 VRB15G25KT 3000 SHRA TSRAGR PROB30 TEMPO 2601/2607 3000 BR

Decode

Departure Runways

ID Width Length Bearing (true) Bearing (mag) Surface Threshold Offset Overrun Length
07 148 ft / 45 m 8,374 ft / 2,552 m 65.53° 64.34° Asphalt 1,476 ft / 450 m 0 ft / 0 m
25 148 ft / 45 m 8,374 ft / 2,552 m 245.55° 244.36° Asphalt 0 ft / 0 m 0 ft / 0 m

LDZD

Details ICAO LDZD (ZAD)
Name ZADAR
Region Croatia
Timezone Europe/Zagreb (UTC+2.0)
Stats Elevation 289 ft / 88 m (AMSL)
Location 44.097225° 15.347978°
Runways 2
Magnetic Variation 3.750° E

METAR

LDZD 251500Z 30009KT 260V350 9999 FEW040 26/16 Q1014 NOSIG

Decode

TAF

TAF LDZD 251126Z 2512/2612 30009KT 9999 FEW040 TX28/2611Z TN16/2604Z PROB30 TEMPO 2512/2515 TS FEW033CB BECMG 2516/2518 VRB02KT PROB30 TEMPO 2602/2604 3000 MIFG

Decode

Destination Runways

ID Width Length Bearing (true) Bearing (mag) Surface Threshold Offset Overrun Length
04 147 ft / 45 m 6,519 ft / 1,987 m 41.52° 37.77° Asphalt 0 ft / 0 m 0 ft / 0 m
14 147 ft / 45 m 8,159 ft / 2,487 m 135.79° 132.04° Asphalt 0 ft / 0 m 0 ft / 0 m
22 147 ft / 45 m 6,519 ft / 1,987 m 221.53° 217.78° Asphalt 0 ft / 0 m 0 ft / 0 m
32 147 ft / 45 m 8,159 ft / 2,487 m 315.81° 312.06° Asphalt 0 ft / 0 m 0 ft / 0 m

Approach Navaids

Runway Type Ident Frequency Range Bearing (true) Bearing (mag) Slope Elevation
14 Localiser IZD 110.10 MHz 25 nm / 46 km 135.69° 131.94° - 246 ft / 75 m (AMSL)
14 Glidescope IZD 110.10 MHz 25 nm / 46 km 135.69° 131.94° 3.00° 236 ft / 72 m (AMSL)

Popular Alternatives